sensor_id;sensor_type;location;lat;lon;timestamp;pressure;altitude;pressure_sealevel;temperature;humidity
55604;BME280;41468;48.838;9.330;2023-01-29T00:01:21;99428.91;;;1.54;77.18
55604;BME280;41468;48.838;9.330;2023-01-29T00:03:51;99437.50;;;1.56;76.27
55604;BME280;41468;48.838;9.330;2023-01-29T00:16:46;99428.88;;;1.59;77.76
55604;BME280;41468;48.838;9.330;2023-01-29T00:19:13;99437.22;;;1.58;77.46
55604;BME280;41468;48.838;9.330;2023-01-29T00:21:40;99443.13;;;1.60;77.88
55604;BME280;41468;48.838;9.330;2023-01-29T00:24:06;99433.16;;;1.60;76.89
55604;BME280;41468;48.838;9.330;2023-01-29T00:26:34;99436.63;;;1.66;77.09
55604;BME280;41468;48.838;9.330;2023-01-29T00:29:06;99440.16;;;1.61;76.66
55604;BME280;41468;48.838;9.330;2023-01-29T00:31:33;99440.16;;;1.61;77.21
55604;BME280;41468;48.838;9.330;2023-01-29T00:34:00;99428.56;;;1.61;77.60
55604;BME280;41468;48.838;9.330;2023-01-29T00:36:27;99423.91;;;1.71;77.06
55604;BME280;41468;48.838;9.330;2023-01-29T00:38:57;99428.53;;;1.66;77.33
55604;BME280;41468;48.838;9.330;2023-01-29T00:41:27;99434.28;;;1.54;76.87
55604;BME280;41468;48.838;9.330;2023-01-29T00:44:12;99432.13;;;1.56;77.13
55604;BME280;41468;48.838;9.330;2023-01-29T00:46:58;99431.44;;;1.74;76.94
55604;BME280;41468;48.838;9.330;2023-01-29T00:49:24;99430.94;;;1.72;77.22
55604;BME280;41468;48.838;9.330;2023-01-29T00:51:51;99429.06;;;1.68;76.91
55604;BME280;41468;48.838;9.330;2023-01-29T00:54:36;99425.59;;;1.67;76.56
55604;BME280;41468;48.838;9.330;2023-01-29T00:57:03;99423.94;;;1.66;76.96
55604;BME280;41468;48.838;9.330;2023-01-29T00:59:29;99429.56;;;1.75;76.61
55604;BME280;41468;48.838;9.330;2023-01-29T01:01:56;99429.34;;;1.66;76.72
55604;BME280;41468;48.838;9.330;2023-01-29T01:04:42;99433.66;;;1.67;77.12
55604;BME280;41468;48.838;9.330;2023-01-29T01:07:08;99425.13;;;1.55;77.51
55604;BME280;41468;48.838;9.330;2023-01-29T01:09:35;99432.78;;;1.72;77.55
55604;BME280;41468;48.838;9.330;2023-01-29T01:12:21;99428.88;;;1.59;77.02
55604;BME280;41468;48.838;9.330;2023-01-29T01:14:48;99425.69;;;1.52;77.62
55604;BME280;41468;48.838;9.330;2023-01-29T01:17:14;99421.06;;;1.58;77.77
55604;BME280;41468;48.838;9.330;2023-01-29T01:19:42;99420.50;;;1.61;77.81
55604;BME280;41468;48.838;9.330;2023-01-29T01:22:08;99420.78;;;1.59;77.46
55604;BME280;41468;48.838;9.330;2023-01-29T01:24:36;99425.88;;;1.61;77.59
55604;BME280;41468;48.838;9.330;2023-01-29T01:27:03;99423.19;;;1.61;77.98
55604;BME280;41468;48.838;9.330;2023-01-29T01:29:29;99418.72;;;1.51;78.15
55604;BME280;41468;48.838;9.330;2023-01-29T01:31:56;99421.06;;;1.58;77.55
55604;BME280;41468;48.838;9.330;2023-01-29T01:34:27;99428.91;;;1.54;77.89
55604;BME280;41468;48.838;9.330;2023-01-29T01:36:54;99423.78;;;1.52;78.08
55604;BME280;41468;48.838;9.330;2023-01-29T01:39:22;99419.22;;;1.53;77.98
55604;BME280;41468;48.838;9.330;2023-01-29T01:41:50;99425.41;;;1.53;78.36
55604;BME280;41468;48.838;9.330;2023-01-29T01:44:54;99425.84;;;1.66;77.53
55604;BME280;41468;48.838;9.330;2023-01-29T01:47:45;99418.53;;;1.71;77.24
55604;BME280;41468;48.838;9.330;2023-01-29T01:50:23;99412.13;;;1.67;76.88
55604;BME280;41468;48.838;9.330;2023-01-29T01:52:54;99406.34;;;1.79;76.56
55604;BME280;41468;48.838;9.330;2023-01-29T01:55:27;99408.31;;;1.68;76.49
55604;BME280;41468;48.838;9.330;2023-01-29T01:58:08;99417.53;;;1.62;76.24
55604;BME280;41468;48.838;9.330;2023-01-29T02:00:36;99417.72;;;1.71;75.46
55604;BME280;41468;48.838;9.330;2023-01-29T02:03:04;99412.44;;;1.61;76.86
55604;BME280;41468;48.838;9.330;2023-01-29T02:05:52;99413.31;;;1.51;76.61
55604;BME280;41468;48.838;9.330;2023-01-29T02:08:50;99427.28;;;1.53;75.96
55604;BME280;41468;48.838;9.330;2023-01-29T02:11:37;99425.53;;;1.38;76.19
55604;BME280;41468;48.838;9.330;2023-01-29T02:14:04;99424.19;;;1.36;75.95
55604;BME280;41468;48.838;9.330;2023-01-29T02:16:33;99423.09;;;1.37;77.08
55604;BME280;41468;48.838;9.330;2023-01-29T02:18:59;99430.03;;;1.48;75.65
55604;BME280;41468;48.838;9.330;2023-01-29T02:21:49;99421.50;;;1.36;75.67
55604;BME280;41468;48.838;9.330;2023-01-29T02:24:31;99429.34;;;1.32;76.37
55604;BME280;41468;48.838;9.330;2023-01-29T02:27:20;99422.22;;;1.46;76.14
55604;BME280;41468;48.838;9.330;2023-01-29T02:29:53;99422.00;;;1.43;76.32
55604;BME280;41468;48.838;9.330;2023-01-29T02:40:53;99423.44;;;1.25;76.81
55604;BME280;41468;48.838;9.330;2023-01-29T02:48:58;99428.25;;;1.33;76.64
55604;BME280;41468;48.838;9.330;2023-01-29T02:51:37;99426.09;;;1.30;76.85
55604;BME280;41468;48.838;9.330;2023-01-29T02:54:17;99425.31;;;1.29;76.09
55604;BME280;41468;48.838;9.330;2023-01-29T02:56:52;99418.28;;;1.33;76.63
55604;BME280;41468;48.838;9.330;2023-01-29T02:59:25;99413.47;;;1.25;76.84
55604;BME280;41468;48.838;9.330;2023-01-29T03:01:57;99417.47;;;1.33;76.58
55604;BME280;41468;48.838;9.330;2023-01-29T03:04:32;99415.03;;;1.31;76.58
55604;BME280;41468;48.838;9.330;2023-01-29T03:07:09;99411.28;;;1.32;76.66
55604;BME280;41468;48.838;9.330;2023-01-29T03:10:00;99418.84;;;1.30;76.63
55604;BME280;41468;48.838;9.330;2023-01-29T03:12:29;99425.78;;;1.37;77.04
55604;BME280;41468;48.838;9.330;2023-01-29T03:15:07;99422.53;;;1.40;76.04
55604;BME280;41468;48.838;9.330;2023-01-29T03:20:16;99422.91;;;1.23;76.40
55604;BME280;41468;48.838;9.330;2023-01-29T03:22:48;99418.63;;;1.22;76.22
55604;BME280;41468;48.838;9.330;2023-01-29T03:25:19;99427.00;;;1.15;76.97
55604;BME280;41468;48.838;9.330;2023-01-29T03:28:05;99412.22;;;1.13;77.26
55604;BME280;41468;48.838;9.330;2023-01-29T03:30:55;99419.69;;;1.21;77.16
55604;BME280;41468;48.838;9.330;2023-01-29T03:33:46;99424.47;;;1.29;76.99
55604;BME280;41468;48.838;9.330;2023-01-29T03:36:22;99418.94;;;1.10;76.49
55604;BME280;41468;48.838;9.330;2023-01-29T03:38:52;99412.47;;;1.16;76.60
55604;BME280;41468;48.838;9.330;2023-01-29T03:41:31;99418.66;;;1.17;76.06
55604;BME280;41468;48.838;9.330;2023-01-29T03:44:11;99414.91;;;1.07;76.92
55604;BME280;41468;48.838;9.330;2023-01-29T03:46:50;99410.84;;;1.15;76.90
55604;BME280;41468;48.838;9.330;2023-01-29T04:02:46;99412.53;;;1.06;76.28
55604;BME280;41468;48.838;9.330;2023-01-29T04:05:24;99420.84;;;1.09;76.47
55604;BME280;41468;48.838;9.330;2023-01-29T04:08:05;99429.72;;;1.10;76.61
55604;BME280;41468;48.838;9.330;2023-01-29T04:10:40;99426.75;;;1.12;76.29
55604;BME280;41468;48.838;9.330;2023-01-29T04:13:11;99415.75;;;1.08;76.38
55604;BME280;41468;48.838;9.330;2023-01-29T04:15:45;99425.44;;;1.04;76.37
55604;BME280;41468;48.838;9.330;2023-01-29T04:18:13;99427.50;;;1.22;75.76
55604;BME280;41468;48.838;9.330;2023-01-29T04:20:40;99427.00;;;1.15;75.99
55604;BME280;41468;48.838;9.330;2023-01-29T04:23:19;99431.06;;;1.07;76.14
55604;BME280;41468;48.838;9.330;2023-01-29T04:25:52;99437.31;;;0.98;76.40
55604;BME280;41468;48.838;9.330;2023-01-29T04:28:27;99436.22;;;0.99;76.17
55604;BME280;41468;48.838;9.330;2023-01-29T04:31:07;99432.16;;;1.06;76.29
55604;BME280;41468;48.838;9.330;2023-01-29T04:39:06;99434.88;;;0.96;75.72
55604;BME280;41468;48.838;9.330;2023-01-29T04:41:44;99428.66;;;1.06;75.59
55604;BME280;41468;48.838;9.330;2023-01-29T04:49:46;99422.16;;;1.12;75.58
55604;BME280;41468;48.838;9.330;2023-01-29T04:55:08;99428.16;;;0.99;75.85
55604;BME280;41468;48.838;9.330;2023-01-29T04:57:56;99424.09;;;1.01;75.64
55604;BME280;41468;48.838;9.330;2023-01-29T05:00:29;99430.84;;;0.99;75.83
55604;BME280;41468;48.838;9.330;2023-01-29T05:02:59;99433.25;;;1.05;75.13
55604;BME280;41468;48.838;9.330;2023-01-29T05:05:27;99432.75;;;0.98;75.68
55604;BME280;41468;48.838;9.330;2023-01-29T05:07:55;99435.50;;;0.83;75.47
55604;BME280;41468;48.838;9.330;2023-01-29T05:10:23;99429.28;;;0.87;75.92
55604;BME280;41468;48.838;9.330;2023-01-29T05:12:56;99429.03;;;0.89;76.17
55604;BME280;41468;48.838;9.330;2023-01-29T05:15:30;99427.97;;;0.85;76.09
55604;BME280;41468;48.838;9.330;2023-01-29T05:17:59;99432.97;;;1.07;76.01
55604;BME280;41468;48.838;9.330;2023-01-29T05:20:32;99430.81;;;1.09;75.67
55604;BME280;41468;48.838;9.330;2023-01-29T05:22:59;99430.28;;;1.02;75.45
55604;BME280;41468;48.838;9.330;2023-01-29T05:25:29;99434.63;;;0.98;75.46
55604;BME280;41468;48.838;9.330;2023-01-29T05:27:56;99439.44;;;1.06;75.24
55604;BME280;41468;48.838;9.330;2023-01-29T05:30:53;99439.38;;;1.16;74.67
55604;BME280;41468;48.838;9.330;2023-01-29T05:33:30;99435.44;;;0.98;75.42
55604;BME280;41468;48.838;9.330;2023-01-29T05:35:59;99426.84;;;0.91;76.24
55604;BME280;41468;48.838;9.330;2023-01-29T05:38:26;99439.78;;;0.89;76.04
55604;BME280;41468;48.838;9.330;2023-01-29T05:40:53;99421.75;;;0.95;76.29
55604;BME280;41468;48.838;9.330;2023-01-29T05:43:22;99426.25;;;1.04;76.51
55604;BME280;41468;48.838;9.330;2023-01-29T05:45:56;99422.50;;;1.05;75.99
55604;BME280;41468;48.838;9.330;2023-01-29T05:48:23;99425.75;;;1.02;75.88
55604;BME280;41468;48.838;9.330;2023-01-29T05:50:50;99410.97;;;0.95;76.35
55604;BME280;41468;48.838;9.330;2023-01-29T05:53:17;99395.31;;;1.02;76.38
55604;BME280;41468;48.838;9.330;2023-01-29T05:55:45;99392.41;;;0.98;76.15
55604;BME280;41468;48.838;9.330;2023-01-29T05:58:12;99381.44;;;0.84;75.98
55604;BME280;41468;48.838;9.330;2023-01-29T06:00:39;99377.94;;;0.89;75.97
55604;BME280;41468;48.838;9.330;2023-01-29T06:03:06;99385.69;;;0.96;75.70
55604;BME280;41468;48.838;9.330;2023-01-29T06:05:37;99387.34;;;0.92;76.18
55604;BME280;41468;48.838;9.330;2023-01-29T06:08:04;99389.16;;;0.96;76.89
55604;BME280;41468;48.838;9.330;2023-01-29T06:10:31;99400.13;;;1.10;76.36
55604;BME280;41468;48.838;9.330;2023-01-29T06:12:57;99399.66;;;0.98;74.88
55604;BME280;41468;48.838;9.330;2023-01-29T06:15:24;99390.03;;;0.92;75.77
55604;BME280;41468;48.838;9.330;2023-01-29T06:17:55;99404.06;;;0.83;75.68
55604;BME280;41468;48.838;9.330;2023-01-29T06:20:23;99401.88;;;0.85;76.29
55604;BME280;41468;48.838;9.330;2023-01-29T06:22:49;99405.94;;;0.78;76.81
55604;BME280;41468;48.838;9.330;2023-01-29T06:25:16;99405.09;;;0.87;76.71
55604;BME280;41468;48.838;9.330;2023-01-29T06:27:42;99413.94;;;0.93;76.71
55604;BME280;41468;48.838;9.330;2023-01-29T06:30:10;99407.78;;;0.87;76.53
55604;BME280;41468;48.838;9.330;2023-01-29T06:32:37;99400.78;;;0.92;77.01
55604;BME280;41468;48.838;9.330;2023-01-29T06:35:08;99412.66;;;0.75;76.85
55604;BME280;41468;48.838;9.330;2023-01-29T06:37:36;99405.66;;;0.79;76.77
55604;BME280;41468;48.838;9.330;2023-01-29T06:40:03;99406.19;;;0.86;76.68
55604;BME280;41468;48.838;9.330;2023-01-29T06:42:29;99413.75;;;0.79;76.79
55604;BME280;41468;48.838;9.330;2023-01-29T06:44:56;99409.38;;;0.88;76.63
55604;BME280;41468;48.838;9.330;2023-01-29T06:47:23;99414.28;;;0.81;76.99
55604;BME280;41468;48.838;9.330;2023-01-29T06:49:50;99412.03;;;0.94;76.70
55604;BME280;41468;48.838;9.330;2023-01-29T06:52:16;99414.69;;;1.04;76.42
55604;BME280;41468;48.838;9.330;2023-01-29T06:54:43;99412.03;;;0.99;75.14
55604;BME280;41468;48.838;9.330;2023-01-29T06:57:10;99427.41;;;0.88;76.67
55604;BME280;41468;48.838;9.330;2023-01-29T06:59:36;99423.66;;;0.84;76.91
55604;BME280;41468;48.838;9.330;2023-01-29T07:02:08;99432.53;;;0.84;76.08
55604;BME280;41468;48.838;9.330;2023-01-29T07:04:34;99432.28;;;0.81;76.89
55604;BME280;41468;48.838;9.330;2023-01-29T07:07:02;99430.19;;;0.73;76.90
55604;BME280;41468;48.838;9.330;2023-01-29T07:09:29;99428.28;;;0.78;76.77
55604;BME280;41468;48.838;9.330;2023-01-29T07:11:55;99421.81;;;0.79;76.99
55604;BME280;41468;48.838;9.330;2023-01-29T07:14:22;99423.19;;;0.72;77.23
55604;BME280;41468;48.838;9.330;2023-01-29T07:16:48;99431.22;;;0.77;76.85
55604;BME280;41468;48.838;9.330;2023-01-29T07:19:15;99430.44;;;0.76;75.95
55604;BME280;41468;48.838;9.330;2023-01-29T07:21:41;99427.19;;;0.74;76.68
55604;BME280;41468;48.838;9.330;2023-01-29T07:24:08;99435.78;;;0.81;76.65
55604;BME280;41468;48.838;9.330;2023-01-29T07:26:35;99436.56;;;0.87;76.44
55604;BME280;41468;48.838;9.330;2023-01-29T07:29:03;99443.28;;;0.84;76.61
55604;BME280;41468;48.838;9.330;2023-01-29T07:31:30;99446.53;;;0.81;76.53
55604;BME280;41468;48.838;9.330;2023-01-29T07:33:57;99439.44;;;1.01;76.41
55604;BME280;41468;48.838;9.330;2023-01-29T07:36:23;99448.34;;;0.91;76.07
55604;BME280;41468;48.838;9.330;2023-01-29T07:38:50;99448.38;;;0.86;76.12
55604;BME280;41468;48.838;9.330;2023-01-29T07:41:17;99447.59;;;0.85;76.10
55604;BME280;41468;48.838;9.330;2023-01-29T07:43:43;99454.59;;;0.81;76.21
55604;BME280;41468;48.838;9.330;2023-01-29T07:46:10;99455.13;;;0.83;76.89
55604;BME280;41468;48.838;9.330;2023-01-29T07:48:36;99454.56;;;0.92;76.17
55604;BME280;41468;48.838;9.330;2023-01-29T07:51:03;99456.91;;;1.03;75.68
55604;BME280;41468;48.838;9.330;2023-01-29T07:53:30;99457.47;;;1.05;75.59
55604;BME280;41468;48.838;9.330;2023-01-29T07:55:56;99466.31;;;1.11;75.21
55604;BME280;41468;48.838;9.330;2023-01-29T07:58:23;99466.84;;;1.13;75.13
55604;BME280;41468;48.838;9.330;2023-01-29T08:00:49;99467.94;;;1.07;75.19
55604;BME280;41468;48.838;9.330;2023-01-29T08:03:17;99465.22;;;1.07;75.30
55604;BME280;41468;48.838;9.330;2023-01-29T08:05:45;99461.69;;;1.17;75.24
55604;BME280;41468;48.838;9.330;2023-01-29T08:08:12;99459.00;;;1.22;74.98
55604;BME280;41468;48.838;9.330;2023-01-29T08:10:39;99461.94;;;1.20;75.14
55604;BME280;41468;48.838;9.330;2023-01-29T08:13:07;99459.81;;;1.17;74.39
55604;BME280;41468;48.838;9.330;2023-01-29T08:15:34;99463.28;;;1.18;74.26
55604;BME280;41468;48.838;9.330;2023-01-29T08:18:04;99470.59;;;1.12;74.51
55604;BME280;41468;48.838;9.330;2023-01-29T08:20:35;99458.28;;;1.01;74.62
55604;BME280;41468;48.838;9.330;2023-01-29T08:23:07;99469.00;;;1.11;74.85
55604;BME280;41468;48.838;9.330;2023-01-29T08:25:34;99473.78;;;1.19;74.75
55604;BME280;41468;48.838;9.330;2023-01-29T08:28:01;99485.50;;;1.44;74.22
55604;BME280;41468;48.838;9.330;2023-01-29T08:30:30;99480.19;;;1.28;74.41
55604;BME280;41468;48.838;9.330;2023-01-29T08:32:57;99477.75;;;1.37;73.89
55604;BME280;41468;48.838;9.330;2023-01-29T08:35:24;99475.59;;;1.34;74.43
55604;BME280;41468;48.838;9.330;2023-01-29T08:37:58;99485.00;;;1.37;73.53
55604;BME280;41468;48.838;9.330;2023-01-29T08:40:29;99495.28;;;1.29;73.85
55604;BME280;41468;48.838;9.330;2023-01-29T08:43:05;99490.31;;;1.47;73.10
55604;BME280;41468;48.838;9.330;2023-01-29T08:45:36;99484.25;;;1.26;73.72
55604;BME280;41468;48.838;9.330;2023-01-29T08:48:04;99491.72;;;1.39;73.28
55604;BME280;41468;48.838;9.330;2023-01-29T08:50:31;99498.53;;;1.26;73.64
55604;BME280;41468;48.838;9.330;2023-01-29T08:53:01;99491.72;;;1.34;73.43
55604;BME280;41468;48.838;9.330;2023-01-29T08:55:28;99499.53;;;1.36;74.28
55604;BME280;41468;48.838;9.330;2023-01-29T08:57:55;99495.72;;;1.42;73.12
55604;BME280;41468;48.838;9.330;2023-01-29T09:00:24;99495.72;;;1.42;73.80
55604;BME280;41468;48.838;9.330;2023-01-29T09:02:51;99502.22;;;1.41;73.81
55604;BME280;41468;48.838;9.330;2023-01-29T09:05:17;99498.09;;;1.53;73.47
55604;BME280;41468;48.838;9.330;2023-01-29T09:07:44;99491.72;;;1.39;73.83
55604;BME280;41468;48.838;9.330;2023-01-29T09:10:11;99505.47;;;1.38;73.14
55604;BME280;41468;48.838;9.330;2023-01-29T09:12:38;99504.69;;;1.32;74.03
55604;BME280;41468;48.838;9.330;2023-01-29T09:15:05;99508.88;;;1.53;73.17
55604;BME280;41468;48.838;9.330;2023-01-29T09:17:32;99498.28;;;1.67;73.06
55604;BME280;41468;48.838;9.330;2023-01-29T09:19:58;99502.56;;;1.68;72.42
55604;BME280;41468;48.838;9.330;2023-01-29T09:22:25;99503.91;;;1.71;72.59
55604;BME280;41468;48.838;9.330;2023-01-29T09:24:52;99508.53;;;1.65;71.84
55604;BME280;41468;48.838;9.330;2023-01-29T09:27:18;99513.88;;;1.70;72.32
55604;BME280;41468;48.838;9.330;2023-01-29T09:29:45;99518.13;;;1.76;72.12
55604;BME280;41468;48.838;9.330;2023-01-29T09:32:12;99517.28;;;1.86;72.06
55604;BME280;41468;48.838;9.330;2023-01-29T09:34:49;99513.34;;;1.68;72.38
55604;BME280;41468;48.838;9.330;2023-01-29T09:37:15;99519.81;;;1.67;71.98
55604;BME280;41468;48.838;9.330;2023-01-29T09:39:48;99511.16;;;1.75;72.97
55604;BME280;41468;48.838;9.330;2023-01-29T09:42:35;99500.63;;;1.79;71.67
55604;BME280;41468;48.838;9.330;2023-01-29T09:45:22;99504.88;;;1.85;72.22
55604;BME280;41468;48.838;9.330;2023-01-29T09:47:50;99496.53;;;1.87;72.33
55604;BME280;41468;48.838;9.330;2023-01-29T09:50:40;99497.00;;;1.94;72.26
55604;BME280;41468;48.838;9.330;2023-01-29T09:53:19;99482.78;;;1.88;72.04
55604;BME280;41468;48.838;9.330;2023-01-29T09:55:55;99475.47;;;1.94;71.29
55604;BME280;41468;48.838;9.330;2023-01-29T09:58:39;99453.91;;;1.94;71.31
55604;BME280;41468;48.838;9.330;2023-01-29T10:01:21;99460.03;;;2.05;70.14
55604;BME280;41468;48.838;9.330;2023-01-29T10:04:19;99462.97;;;2.03;70.10
55604;BME280;41468;48.838;9.330;2023-01-29T10:07:09;99455.78;;;2.22;67.92
55604;BME280;41468;48.838;9.330;2023-01-29T10:23:37;99433.75;;;2.45;66.64
55604;BME280;41468;48.838;9.330;2023-01-29T10:26:11;99443.16;;;2.47;66.38
55604;BME280;41468;48.838;9.330;2023-01-29T10:28:44;99451.13;;;2.57;65.96
55604;BME280;41468;48.838;9.330;2023-01-29T10:31:19;99453.47;;;2.40;64.54
55604;BME280;41468;48.838;9.330;2023-01-29T10:33:53;99454.09;;;2.32;66.25
55604;BME280;41468;48.838;9.330;2023-01-29T10:36:34;99453.31;;;2.31;66.82
55604;BME280;41468;48.838;9.330;2023-01-29T10:39:01;99449.59;;;2.22;66.38
55604;BME280;41468;48.838;9.330;2023-01-29T10:44:59;99459.50;;;2.32;66.67
55604;BME280;41468;48.838;9.330;2023-01-29T10:50:17;99443.81;;;2.10;65.57
55604;BME280;41468;48.838;9.330;2023-01-29T10:58:51;99439.69;;;2.41;65.74
55604;BME280;41468;48.838;9.330;2023-01-29T11:01:19;99441.75;;;2.26;66.45
55604;BME280;41468;48.838;9.330;2023-01-29T11:03:56;99442.19;;;2.38;65.88
55604;BME280;41468;48.838;9.330;2023-01-29T11:06:29;99449.06;;;2.49;65.79
55604;BME280;41468;48.838;9.330;2023-01-29T11:09:22;99444.72;;;2.53;65.40
55604;BME280;41468;48.838;9.330;2023-01-29T11:11:56;99439.31;;;2.53;65.88
55604;BME280;41468;48.838;9.330;2023-01-29T11:14:27;99436.75;;;2.67;66.12
55604;BME280;41468;48.838;9.330;2023-01-29T11:16:55;99437.00;;;2.65;67.32
55604;BME280;41468;48.838;9.330;2023-01-29T11:19:36;99432.59;;;2.75;65.19
55604;BME280;41468;48.838;9.330;2023-01-29T11:22:03;99431.63;;;2.65;65.72
55604;BME280;41468;48.838;9.330;2023-01-29T11:24:29;99421.34;;;2.68;64.62
55604;BME280;41468;48.838;9.330;2023-01-29T11:26:58;99416.47;;;2.70;65.32
55604;BME280;41468;48.838;9.330;2023-01-29T11:29:38;99415.19;;;2.86;66.22
55604;BME280;41468;48.838;9.330;2023-01-29T11:32:24;99407.22;;;2.76;63.95
55604;BME280;41468;48.838;9.330;2023-01-29T11:37:37;99400.50;;;2.73;66.17
55604;BME280;41468;48.838;9.330;2023-01-29T11:40:37;99406.03;;;2.63;66.51
55604;BME280;41468;48.838;9.330;2023-01-29T11:45:50;99391.91;;;2.71;65.57
55604;BME280;41468;48.838;9.330;2023-01-29T11:48:20;99393.22;;;2.74;65.22
55604;BME280;41468;48.838;9.330;2023-01-29T11:50:55;99387.72;;;2.60;65.00
55604;BME280;41468;48.838;9.330;2023-01-29T11:53:30;99397.94;;;2.63;66.11
55604;BME280;41468;48.838;9.330;2023-01-29T12:01:55;99383.69;;;3.00;64.91
55604;BME280;41468;48.838;9.330;2023-01-29T12:04:29;99370.00;;;2.97;65.52
55604;BME280;41468;48.838;9.330;2023-01-29T12:06:56;99361.53;;;3.03;63.83
55604;BME280;41468;48.838;9.330;2023-01-29T12:09:26;99360.53;;;2.99;64.67
55604;BME280;41468;48.838;9.330;2023-01-29T12:11:53;99355.63;;;2.82;65.01
55604;BME280;41468;48.838;9.330;2023-01-29T12:14:26;99349.13;;;3.02;65.84
55604;BME280;41468;48.838;9.330;2023-01-29T12:17:06;99345.03;;;3.24;64.22
55604;BME280;41468;48.838;9.330;2023-01-29T12:19:49;99330.09;;;3.31;62.56
55604;BME280;41468;48.838;9.330;2023-01-29T12:22:24;99328.25;;;3.27;63.25
55604;BME280;41468;48.838;9.330;2023-01-29T12:24:57;99318.69;;;3.35;62.01
55604;BME280;41468;48.838;9.330;2023-01-29T12:27:31;99314.09;;;3.35;63.50
55604;BME280;41468;48.838;9.330;2023-01-29T12:30:06;99309.78;;;3.34;61.98
55604;BME280;41468;48.838;9.330;2023-01-29T12:32:47;99297.44;;;3.47;62.90
55604;BME280;41468;48.838;9.330;2023-01-29T12:35:22;99290.44;;;3.60;62.66
55604;BME280;41468;48.838;9.330;2023-01-29T12:38:09;99284.19;;;3.78;61.29
55604;BME280;41468;48.838;9.330;2023-01-29T12:40:42;99283.56;;;3.67;60.38
55604;BME280;41468;48.838;9.330;2023-01-29T12:43:15;99270.22;;;3.43;61.96
55604;BME280;41468;48.838;9.330;2023-01-29T12:45:44;99272.50;;;3.36;62.49
55604;BME280;41468;48.838;9.330;2023-01-29T12:48:16;99273.06;;;3.33;62.39
55604;BME280;41468;48.838;9.330;2023-01-29T12:50:47;99270.97;;;3.30;62.69
55604;BME280;41468;48.838;9.330;2023-01-29T12:53:23;99267.28;;;3.26;63.66
55604;BME280;41468;48.838;9.330;2023-01-29T12:56:14;99263.66;;;3.49;62.28
55604;BME280;41468;48.838;9.330;2023-01-29T12:58:47;99261.50;;;3.46;60.26
55604;BME280;41468;48.838;9.330;2023-01-29T13:03:55;99253.41;;;3.46;62.22
55604;BME280;41468;48.838;9.330;2023-01-29T13:06:28;99250.53;;;3.57;61.52
55604;BME280;41468;48.838;9.330;2023-01-29T13:09:05;99247.91;;;3.51;61.54
55604;BME280;41468;48.838;9.330;2023-01-29T13:11:38;99236.34;;;3.65;62.15
55604;BME280;41468;48.838;9.330;2023-01-29T13:14:17;99234.22;;;3.48;61.89
55604;BME280;41468;48.838;9.330;2023-01-29T13:16:49;99242.44;;;3.57;61.23
55604;BME280;41468;48.838;9.330;2023-01-29T13:19:35;99230.75;;;3.61;62.50
55604;BME280;41468;48.838;9.330;2023-01-29T13:22:19;99240.53;;;3.57;63.72
55604;BME280;41468;48.838;9.330;2023-01-29T13:24:48;99231.34;;;3.72;63.52
55604;BME280;41468;48.838;9.330;2023-01-29T13:27:32;99230.75;;;3.61;63.38
55604;BME280;41468;48.838;9.330;2023-01-29T13:29:59;99231.53;;;3.62;63.20
55604;BME280;41468;48.838;9.330;2023-01-29T13:32:28;99231.06;;;3.87;67.63
55604;BME280;41468;48.838;9.330;2023-01-29T13:35:13;99236.75;;;3.72;63.84
55604;BME280;41468;48.838;9.330;2023-01-29T13:37:49;99233.88;;;3.68;63.06
55604;BME280;41468;48.838;9.330;2023-01-29T13:40:23;99238.06;;;3.61;62.49
55604;BME280;41468;48.838;9.330;2023-01-29T13:42:51;99233.63;;;3.65;64.01
55604;BME280;41468;48.838;9.330;2023-01-29T13:45:24;99240.34;;;3.81;63.54
55604;BME280;41468;48.838;9.330;2023-01-29T13:48:07;99232.13;;;4.00;62.85
55604;BME280;41468;48.838;9.330;2023-01-29T13:50:37;99236.84;;;3.94;62.67
55604;BME280;41468;48.838;9.330;2023-01-29T13:53:06;99240.84;;;3.97;62.66
55604;BME280;41468;48.838;9.330;2023-01-29T13:55:36;99243.38;;;3.93;62.56
55604;BME280;41468;48.838;9.330;2023-01-29T13:58:05;99236.84;;;3.81;63.27
55604;BME280;41468;48.838;9.330;2023-01-29T14:10:41;99237.25;;;3.74;64.65
55604;BME280;41468;48.838;9.330;2023-01-29T14:18:26;99233.81;;;3.54;64.73
55604;BME280;41468;48.838;9.330;2023-01-29T14:20:57;99238.84;;;3.47;65.50
55604;BME280;41468;48.838;9.330;2023-01-29T14:23:48;99232.63;;;3.47;65.30
55604;BME280;41468;48.838;9.330;2023-01-29T14:26:25;99229.25;;;3.55;65.31
55604;BME280;41468;48.838;9.330;2023-01-29T14:31:31;99224.59;;;3.28;65.57
55604;BME280;41468;48.838;9.330;2023-01-29T14:34:03;99222.91;;;3.46;65.44
55604;BME280;41468;48.838;9.330;2023-01-29T14:36:39;99222.13;;;3.45;65.66
55604;BME280;41468;48.838;9.330;2023-01-29T14:39:18;99213.50;;;3.43;64.99
55604;BME280;41468;48.838;9.330;2023-01-29T14:41:46;99218.53;;;3.50;65.28
55604;BME280;41468;48.838;9.330;2023-01-29T14:50:00;99212.91;;;3.32;63.85
55604;BME280;41468;48.838;9.330;2023-01-29T14:52:38;99209.81;;;3.25;64.68
55604;BME280;41468;48.838;9.330;2023-01-29T14:55:12;99209.09;;;3.20;65.89
55604;BME280;41468;48.838;9.330;2023-01-29T14:57:41;99202.19;;;3.27;66.02
55604;BME280;41468;48.838;9.330;2023-01-29T15:00:27;99209.66;;;3.17;65.82
55604;BME280;41468;48.838;9.330;2023-01-29T15:02:54;99210.50;;;3.17;66.50
55604;BME280;41468;48.838;9.330;2023-01-29T15:05:35;99211.38;;;3.26;65.92
55604;BME280;41468;48.838;9.330;2023-01-29T15:08:20;99223.06;;;3.22;65.22
55604;BME280;41468;48.838;9.330;2023-01-29T15:10:57;99214.50;;;3.20;65.57
55604;BME280;41468;48.838;9.330;2023-01-29T15:14:05;99217.56;;;3.13;66.63
55604;BME280;41468;48.838;9.330;2023-01-29T15:19:27;99216.59;;;3.23;66.45
55604;BME280;41468;48.838;9.330;2023-01-29T15:22:21;99211.78;;;3.20;66.52
55604;BME280;41468;48.838;9.330;2023-01-29T15:25:03;99213.13;;;3.03;66.72
55604;BME280;41468;48.838;9.330;2023-01-29T15:27:31;99208.59;;;3.18;69.21
55604;BME280;41468;48.838;9.330;2023-01-29T15:30:00;99208.66;;;3.13;67.13
55604;BME280;41468;48.838;9.330;2023-01-29T15:32:38;99209.75;;;3.12;67.59
55604;BME280;41468;48.838;9.330;2023-01-29T15:35:14;99206.69;;;3.18;66.95
55604;BME280;41468;48.838;9.330;2023-01-29T15:37:57;99204.34;;;3.12;67.54
55604;BME280;41468;48.838;9.330;2023-01-29T15:40:24;99211.88;;;3.15;67.81